Photometre #642[NE_1.2] Dushanbe AOT

File : 20190928_642.hum

28/09/2019,03:17:32,TEMP=25.1,BA=5.20,STAT.A=4.5,ExtBa=13.59
28/09/2019,03:19:55,TEMP=25.4,BA=5.20,STAT.A=4.0,ExtBa=13.59
28/09/2019,03:31:02,TEMP=25.7,BA=5.40,STAT.A=4.5,ExtBa=13.73
28/09/2019,03:44:42,TEMP=26.5,BA=5.40,STAT.A=4.5,ExtBa=13.85
28/09/2019,04:01:57,TEMP=27.5,BA=5.40,STAT.B=4.5,ExtBa=13.95
28/09/2019,04:15:53,TEMP=28.0,BA=5.24,STAT.F,ExtBa=13.89
28/09/2019,04:30:51,TEMP=28.7,BA=5.24,STAT.D=4.5,ExtBa=13.70
28/09/2019,04:45:51,TEMP=28.5,BA=5.36,STAT.D=4.5,ExtBa=13.92
28/09/2019,05:00:51,TEMP=29.2,BA=5.36,STAT.D=4.5,ExtBa=13.94
28/09/2019,05:15:53,TEMP=29.9,BA=5.36,STAT.F,ExtBa=13.94
28/09/2019,05:30:52,TEMP=31.2,BA=5.32,STAT.D=5.0,ExtBa=13.75
28/09/2019,05:45:52,TEMP=32.4,BA=5.36,STAT.D=5.0,ExtBa=14.01
28/09/2019,06:00:52,TEMP=34.0,BA=5.36,STAT.D=5.0,ExtBa=14.00
28/09/2019,06:15:53,TEMP=35.7,BA=5.36,STAT.F,ExtBa=13.97
28/09/2019,06:30:52,TEMP=36.6,BA=5.28,STAT.D=5.0,ExtBa=13.68
28/09/2019,06:45:52,TEMP=36.7,BA=5.36,STAT.D=5.5,ExtBa=13.96
28/09/2019,07:00:52,TEMP=37.6,BA=5.36,STAT.D=5.5,ExtBa=13.94
28/09/2019,07:15:54,TEMP=38.3,BA=5.36,STAT.F,ExtBa=13.90
28/09/2019,07:31:44,TEMP=38.7,BA=5.28,STAT.D=5.5,ExtBa=13.67
28/09/2019,07:45:52,TEMP=38.8,BA=5.32,STAT.D=5.5,ExtBa=13.88
28/09/2019,08:00:52,TEMP=39.2,BA=5.32,STAT.D=5.5,ExtBa=13.84
28/09/2019,08:15:53,TEMP=39.0,BA=5.32,STAT.F,ExtBa=13.83
28/09/2019,08:30:52,TEMP=39.2,BA=5.32,STAT.D=5.5,ExtBa=13.70
28/09/2019,08:45:52,TEMP=39.1,BA=5.32,STAT.D=5.5,ExtBa=13.78
28/09/2019,09:00:52,TEMP=39.0,BA=5.32,STAT.D=5.5,ExtBa=13.78
28/09/2019,09:15:53,TEMP=39.7,BA=5.32,STAT.F,ExtBa=13.74
28/09/2019,09:30:52,TEMP=39.4,BA=5.28,STAT.D=5.5,ExtBa=13.63
28/09/2019,09:45:51,TEMP=39.2,BA=5.32,STAT.D=5.5,ExtBa=13.70
28/09/2019,10:00:51,TEMP=39.5,BA=5.32,STAT.D=5.5,ExtBa=13.66
28/09/2019,10:15:53,TEMP=39.6,BA=5.32,STAT.F,ExtBa=13.63
28/09/2019,10:30:49,TEMP=39.2,BA=5.24,STAT.B=5.5,ExtBa=13.59
28/09/2019,10:47:04,TEMP=38.6,BA=5.32,STAT.A=5.5,ExtBa=13.60
28/09/2019,11:00:42,TEMP=38.5,BA=5.32,STAT.A=5.5,ExtBa=13.58
28/09/2019,11:11:49,TEMP=38.0,BA=5.32,STAT.A=5.5,ExtBa=13.57
28/09/2019,11:21:56,TEMP=37.6,BA=5.32,STAT.A=5.5,ExtBa=13.56
28/09/2019,11:29:00,TEMP=37.1,BA=5.32,STAT.C=5.5,ExtBa=13.56
28/09/2019,11:43:38,TEMP=36.3,BA=5.24,STAT.A=5.0,ExtBa=13.54
28/09/2019,11:45:32,TEMP=36.4,BA=5.24,STAT.A=5.0,ExtBa=13.54
28/09/2019,11:47:27,TEMP=36.3,BA=5.24,STAT.A=5.0,ExtBa=13.54
28/09/2019,11:51:30,TEMP=35.8,BA=5.32,STAT.A=5.0,ExtBa=13.54
28/09/2019,11:55:37,TEMP=35.6,BA=5.32,STAT.B=5.5,ExtBa=13.54
28/09/2019,12:04:51,TEMP=35.1,BA=5.24,STAT.A=5.0,ExtBa=13.54
28/09/2019,12:11:03,TEMP=34.4,BA=5.28,STAT.A=5.0,ExtBa=13.54
28/09/2019,12:16:35,TEMP=34.0,BA=5.28,STAT.A=5.0,ExtBa=13.54
28/09/2019,12:21:10,TEMP=33.7,BA=5.28,STAT.A=5.0,ExtBa=13.55
28/09/2019,12:25:02,TEMP=33.5,BA=5.28,STAT.A=5.0,ExtBa=13.55
28/09/2019,12:28:20,TEMP=33.3,BA=5.28,STAT.A=5.0,ExtBa=13.55